createdAt,value
2022-07-27T00:02:07.492Z,1.20
2022-07-27T00:04:42.463Z,1.20
2022-07-27T00:07:16.132Z,1.20
2022-07-27T00:09:44.721Z,1.10
2022-07-27T00:12:15.749Z,1.17
2022-07-27T00:14:47.424Z,0.90
2022-07-27T00:17:42.089Z,1.10
2022-07-27T00:20:13.172Z,0.93
2022-07-27T00:22:45.258Z,1.07
2022-07-27T00:25:16.471Z,1.30
2022-07-27T00:27:48.296Z,1.00
2022-07-27T00:30:18.359Z,1.10
2022-07-27T00:32:50.217Z,1.20
2022-07-27T00:35:20.524Z,1.03
2022-07-27T00:37:52.691Z,1.00
2022-07-27T00:40:23.523Z,1.10
2022-07-27T00:42:53.783Z,0.90
2022-07-27T00:45:25.110Z,0.97
2022-07-27T00:47:59.751Z,1.40
2022-07-27T00:50:32.094Z,1.07
2022-07-27T00:53:02.428Z,1.00
2022-07-27T00:55:32.734Z,1.10
2022-07-27T00:58:16.820Z,1.00
2022-07-27T01:00:47.731Z,1.10
2022-07-27T01:03:19.503Z,1.10
2022-07-27T01:05:55.615Z,1.03
2022-07-27T01:08:22.909Z,1.00
2022-07-27T01:10:56.744Z,1.10
2022-07-27T01:13:29.477Z,1.03
2022-07-27T01:16:01.102Z,0.93
2022-07-27T01:18:36.711Z,1.00
2022-07-27T01:21:09.486Z,0.87
2022-07-27T01:23:41.593Z,1.20
2022-07-27T01:26:10.594Z,0.97
2022-07-27T01:28:41.601Z,0.90
2022-07-27T01:31:11.315Z,0.90
2022-07-27T01:33:43.936Z,0.93
2022-07-27T01:36:11.823Z,0.73
2022-07-27T01:38:40.540Z,0.90
2022-07-27T01:41:12.180Z,0.90
2022-07-27T01:43:42.824Z,1.00
2022-07-27T01:46:13.573Z,1.00
2022-07-27T01:48:45.010Z,1.00
2022-07-27T01:51:15.544Z,0.80
2022-07-27T01:53:46.817Z,0.80
2022-07-27T01:56:19.067Z,1.07
2022-07-27T01:58:51.618Z,0.90
2022-07-27T02:01:27.686Z,0.87
2022-07-27T02:03:58.702Z,0.90
2022-07-27T02:06:30.364Z,0.87
2022-07-27T02:09:02.263Z,0.93
2022-07-27T02:11:53.612Z,0.83
2022-07-27T02:14:24.448Z,1.00
2022-07-27T02:16:52.879Z,0.80
2022-07-27T02:19:23.596Z,0.80
2022-07-27T02:21:55.716Z,0.90
2022-07-27T02:24:25.263Z,0.93
2022-07-27T02:26:57.128Z,0.80
2022-07-27T02:29:30.663Z,0.90
2022-07-27T02:32:02.451Z,1.17
2022-07-27T02:34:32.841Z,1.13
2022-07-27T02:37:04.228Z,1.10
2022-07-27T02:39:35.345Z,1.03
2022-07-27T02:42:05.459Z,1.00
2022-07-27T02:44:37.384Z,0.97
2022-07-27T02:47:12.495Z,0.77
2022-07-27T02:49:43.905Z,0.90
2022-07-27T02:52:15.466Z,0.90
2022-07-27T02:54:44.948Z,0.90
2022-07-27T02:57:12.448Z,0.90
2022-07-27T02:59:44.365Z,0.93
2022-07-27T03:02:20.054Z,0.90
2022-07-27T03:04:53.209Z,1.00
2022-07-27T03:07:24.088Z,1.00
2022-07-27T03:09:54.060Z,0.90
2022-07-27T03:12:25.967Z,0.77
2022-07-27T03:14:55.569Z,0.93
2022-07-27T03:17:26.269Z,0.90
2022-07-27T03:19:56.896Z,1.10
2022-07-27T03:22:31.997Z,0.77
2022-07-27T03:25:04.853Z,1.07
2022-07-27T03:27:36.338Z,1.10
2022-07-27T03:30:08.100Z,0.83
2022-07-27T03:32:39.924Z,0.80
2022-07-27T03:35:11.931Z,1.07
2022-07-27T03:37:43.040Z,0.97
2022-07-27T03:40:13.710Z,0.90
2022-07-27T03:42:44.294Z,0.90
2022-07-27T03:45:15.041Z,0.80
2022-07-27T03:47:43.761Z,0.93
2022-07-27T03:50:15.702Z,1.00
2022-07-27T03:52:46.457Z,0.80
2022-07-27T03:55:24.545Z,1.00
2022-07-27T03:58:21.369Z,1.00
2022-07-27T04:00:49.318Z,0.97
2022-07-27T04:03:23.404Z,0.97
2022-07-27T04:05:54.213Z,1.17
2022-07-27T04:08:24.271Z,0.90
2022-07-27T04:10:58.212Z,1.10
2022-07-27T04:13:27.022Z,0.90
2022-07-27T04:15:59.856Z,0.87
2022-07-27T04:18:33.590Z,1.10
2022-07-27T04:21:07.378Z,1.00
2022-07-27T04:23:39.715Z,1.00
2022-07-27T04:26:10.877Z,0.80
2022-07-27T04:29:09.515Z,0.83
2022-07-27T04:31:38.629Z,0.97
2022-07-27T04:34:08.257Z,1.00
2022-07-27T04:36:39.372Z,0.90
2022-07-27T04:39:12.082Z,0.80
2022-07-27T04:41:47.247Z,0.90
2022-07-27T04:44:16.991Z,0.90
2022-07-27T04:46:48.291Z,0.90
2022-07-27T04:49:17.294Z,1.00
2022-07-27T04:51:47.950Z,0.90
2022-07-27T04:54:20.698Z,1.10
2022-07-27T04:56:49.660Z,0.93
2022-07-27T04:59:19.515Z,0.93
2022-07-27T05:01:50.501Z,0.70
2022-07-27T05:04:30.933Z,1.00
2022-07-27T05:07:02.358Z,0.80
2022-07-27T05:09:34.897Z,1.00
2022-07-27T05:12:09.881Z,0.93
2022-07-27T05:14:37.266Z,0.67
2022-07-27T05:17:11.859Z,0.90
2022-07-27T05:20:03.707Z,1.03
2022-07-27T05:22:35.091Z,1.00
2022-07-27T05:25:12.467Z,0.90
2022-07-27T05:27:53.911Z,0.87
2022-07-27T05:30:28.745Z,0.87
2022-07-27T05:33:00.476Z,0.93
2022-07-27T05:35:29.412Z,1.00
2022-07-27T05:38:01.835Z,1.33
2022-07-27T05:40:34.291Z,0.87
2022-07-27T05:43:07.607Z,0.90
2022-07-27T05:45:40.475Z,1.00
2022-07-27T05:48:13.276Z,0.97
2022-07-27T05:50:45.116Z,1.03
2022-07-27T05:53:17.491Z,0.90
2022-07-27T05:55:58.835Z,1.10
2022-07-27T05:58:35.509Z,0.90
2022-07-27T06:01:03.031Z,1.10
2022-07-27T06:03:33.614Z,1.00
2022-07-27T06:06:21.001Z,1.00
2022-07-27T06:08:53.741Z,0.90
2022-07-27T06:11:27.579Z,1.33
2022-07-27T06:14:10.271Z,1.17
2022-07-27T06:16:51.980Z,1.10
2022-07-27T06:19:21.094Z,1.10
2022-07-27T06:21:54.075Z,0.83
2022-07-27T06:24:27.805Z,1.10
2022-07-27T06:26:56.557Z,1.20
2022-07-27T06:29:29.807Z,1.17
2022-07-27T06:32:23.796Z,1.10
2022-07-27T06:34:54.123Z,0.90
2022-07-27T06:37:36.979Z,0.80
2022-07-27T06:40:11.862Z,0.80
2022-07-27T06:42:42.964Z,0.90
2022-07-27T06:45:13.965Z,0.90
2022-07-27T06:47:54.868Z,0.80
2022-07-27T06:50:29.172Z,0.80
2022-07-27T06:53:03.770Z,0.70
2022-07-27T06:55:43.657Z,1.63
2022-07-27T06:58:16.082Z,6.90
2022-07-27T07:00:50.493Z,7.87
2022-07-27T07:03:23.175Z,11.20
2022-07-27T07:05:56.201Z,13.17
2022-07-27T07:08:27.065Z,13.43
2022-07-27T07:10:57.602Z,15.90
2022-07-27T07:13:28.429Z,14.77
2022-07-27T07:16:00.482Z,14.77
2022-07-27T07:18:32.647Z,13.03
2022-07-27T07:21:07.912Z,11.73
2022-07-27T07:23:39.955Z,10.37
2022-07-27T07:26:12.389Z,9.90
2022-07-27T07:28:47.558Z,7.53
2022-07-27T07:31:20.361Z,7.03
2022-07-27T07:33:51.885Z,5.63
2022-07-27T07:36:27.771Z,5.27
2022-07-27T07:39:02.749Z,4.80
2022-07-27T07:41:30.657Z,4.43
2022-07-27T07:44:00.419Z,3.37
2022-07-27T07:46:32.537Z,4.33
2022-07-27T07:49:05.588Z,3.90
2022-07-27T07:51:35.234Z,4.10
2022-07-27T07:54:07.600Z,3.20
2022-07-27T07:56:35.037Z,3.83
2022-07-27T07:59:07.482Z,4.07
2022-07-27T08:01:46.013Z,4.43
2022-07-27T08:04:18.575Z,3.87
2022-07-27T08:06:48.606Z,3.53
2022-07-27T08:09:20.294Z,3.60
2022-07-27T08:11:52.482Z,3.80
2022-07-27T08:14:26.103Z,3.60
2022-07-27T08:16:56.172Z,2.80
2022-07-27T08:19:25.449Z,3.53
2022-07-27T08:21:57.068Z,3.90
2022-07-27T08:24:27.625Z,2.93
2022-07-27T08:27:02.866Z,2.90
2022-07-27T08:29:38.443Z,3.37
2022-07-27T08:32:09.458Z,3.20
2022-07-27T08:34:38.712Z,3.10
2022-07-27T08:37:15.203Z,2.67
2022-07-27T08:40:38.414Z,2.53
2022-07-27T08:42:49.262Z,2.50
2022-07-27T08:45:23.061Z,2.67
2022-07-27T08:47:54.225Z,2.10
2022-07-27T08:50:31.693Z,2.40
2022-07-27T08:53:52.489Z,2.90
2022-07-27T08:56:24.874Z,2.07
2022-07-27T08:58:56.595Z,2.13
2022-07-27T09:01:28.366Z,1.90
2022-07-27T09:06:53.114Z,1.83
2022-07-27T09:09:26.057Z,1.70
2022-07-27T09:12:18.826Z,2.23
2022-07-27T09:14:53.300Z,5.10
2022-07-27T09:20:23.198Z,3.40
2022-07-27T09:22:57.242Z,3.00
2022-07-27T09:26:03.608Z,3.53
2022-07-27T09:28:35.944Z,2.60
2022-07-27T09:31:10.863Z,2.90
2022-07-27T09:33:55.251Z,2.67
2022-07-27T09:36:24.244Z,2.30
2022-07-27T09:39:07.772Z,2.20
2022-07-27T09:41:49.860Z,2.53
2022-07-27T09:44:34.887Z,2.20
2022-07-27T09:47:31.407Z,2.30
2022-07-27T09:50:18.675Z,1.70
2022-07-27T09:52:51.007Z,1.87
2022-07-27T09:55:21.993Z,1.60
2022-07-27T09:58:15.772Z,1.80
2022-07-27T10:00:57.444Z,1.63
2022-07-27T10:03:26.720Z,1.57
2022-07-27T10:05:59.473Z,1.73
2022-07-27T10:08:30.418Z,1.60
2022-07-27T10:11:03.867Z,1.50
2022-07-27T10:13:43.874Z,1.30
2022-07-27T10:16:22.949Z,1.20
2022-07-27T10:18:55.601Z,1.50
2022-07-27T10:21:27.592Z,1.30
2022-07-27T10:24:02.900Z,1.37
2022-07-27T10:26:39.565Z,1.30
2022-07-27T10:29:21.089Z,1.40
2022-07-27T10:32:02.635Z,1.30
2022-07-27T10:34:40.824Z,1.30
2022-07-27T10:37:17.781Z,1.17
2022-07-27T10:39:48.183Z,1.13
2022-07-27T10:42:31.453Z,1.50
2022-07-27T10:45:18.880Z,1.30
2022-07-27T10:48:00.873Z,1.20
2022-07-27T10:50:32.516Z,1.23
2022-07-27T10:53:05.995Z,1.40
2022-07-27T10:55:38.491Z,1.43
2022-07-27T10:58:23.113Z,1.40
2022-07-27T11:00:55.837Z,2.10
2022-07-27T11:03:42.552Z,1.50
2022-07-27T11:12:07.561Z,1.30
2022-07-27T11:14:49.545Z,1.20
2022-07-27T11:20:47.104Z,1.23
2022-07-27T11:26:12.689Z,1.10
2022-07-27T11:28:45.321Z,1.10
2022-07-27T11:31:32.454Z,1.10
2022-07-27T11:34:12.384Z,1.20
2022-07-27T11:36:53.113Z,1.00
2022-07-27T11:39:58.733Z,1.03
2022-07-27T11:42:18.783Z,1.10
2022-07-27T11:44:53.505Z,0.90
2022-07-27T11:47:29.090Z,1.00
2022-07-27T11:50:12.382Z,1.00
2022-07-27T11:55:27.089Z,0.70
2022-07-27T11:57:58.754Z,0.80
2022-07-27T12:00:40.146Z,0.70
2022-07-27T12:03:13.944Z,0.70
2022-07-27T12:05:47.809Z,0.70
2022-07-27T12:08:16.508Z,0.80
2022-07-27T12:11:11.063Z,0.80
2022-07-27T12:13:40.289Z,0.90
2022-07-27T12:16:07.493Z,0.80
2022-07-27T12:18:48.806Z,0.70
2022-07-27T12:21:19.578Z,0.67
2022-07-27T12:23:56.742Z,0.70
2022-07-27T12:26:30.431Z,0.90
2022-07-27T12:34:48.075Z,0.70
2022-07-27T12:37:23.003Z,1.00
2022-07-27T12:39:55.263Z,1.00
2022-07-27T12:42:37.288Z,0.90
2022-07-27T12:45:18.257Z,1.10
2022-07-27T12:47:53.781Z,1.20
2022-07-27T12:50:28.987Z,1.07
2022-07-27T12:52:59.834Z,1.10
2022-07-27T12:55:31.743Z,1.20
2022-07-27T12:58:04.703Z,1.00
2022-07-27T13:03:40.381Z,1.40
2022-07-27T13:06:15.895Z,1.23
2022-07-27T13:08:51.634Z,1.07
2022-07-27T13:11:23.581Z,1.40
2022-07-27T13:13:57.290Z,1.10
2022-07-27T13:16:25.122Z,1.63
2022-07-27T13:18:52.788Z,1.40
2022-07-27T13:21:28.392Z,1.07
2022-07-27T13:23:58.640Z,0.97
2022-07-27T13:26:31.476Z,1.03
2022-07-27T13:29:00.368Z,0.80
2022-07-27T13:31:30.384Z,1.17
2022-07-27T13:33:58.147Z,1.60
2022-07-27T13:36:29.777Z,1.27
2022-07-27T13:39:01.070Z,1.13
2022-07-27T13:41:32.459Z,1.20
2022-07-27T13:44:02.201Z,1.03
2022-07-27T13:46:31.856Z,1.13
2022-07-27T13:49:02.875Z,1.00
2022-07-27T13:51:36.774Z,1.00
2022-07-27T13:54:10.010Z,1.33
2022-07-27T13:56:39.637Z,1.00
2022-07-27T13:59:08.466Z,1.10
2022-07-27T14:01:40.985Z,0.83
2022-07-27T14:06:55.734Z,1.07
2022-07-27T14:09:58.605Z,1.13
2022-07-27T14:12:32.585Z,1.10
2022-07-27T14:15:04.273Z,1.10
2022-07-27T14:20:20.547Z,1.10
2022-07-27T14:23:02.798Z,1.10
2022-07-27T14:25:33.781Z,0.80
2022-07-27T14:28:06.387Z,1.13
2022-07-27T14:30:42.248Z,1.13
2022-07-27T14:33:14.905Z,1.20
2022-07-27T14:35:43.486Z,1.63
2022-07-27T14:38:13.146Z,1.20
2022-07-27T14:40:50.776Z,1.10
2022-07-27T14:43:22.851Z,1.00
2022-07-27T14:45:56.759Z,1.20
2022-07-27T14:48:48.801Z,1.20
2022-07-27T14:51:21.872Z,1.07
2022-07-27T14:53:49.580Z,1.17
2022-07-27T14:56:21.045Z,1.23
2022-07-27T14:58:53.140Z,1.10
2022-07-27T15:01:25.568Z,1.10
2022-07-27T15:03:59.629Z,0.83
2022-07-27T15:06:40.032Z,0.97
2022-07-27T15:09:09.125Z,1.17
2022-07-27T15:11:44.101Z,1.10
2022-07-27T15:14:15.907Z,1.10
2022-07-27T15:16:43.806Z,1.00
2022-07-27T15:19:14.750Z,1.10
2022-07-27T15:21:48.204Z,1.00
2022-07-27T15:24:16.957Z,1.10
2022-07-27T15:26:47.536Z,1.10
2022-07-27T15:29:18.257Z,1.00
2022-07-27T15:31:48.785Z,0.70
2022-07-27T15:34:21.050Z,1.30
2022-07-27T15:36:57.153Z,0.80
2022-07-27T15:39:27.190Z,1.00
2022-07-27T15:42:00.691Z,0.90
2022-07-27T15:44:32.163Z,1.20
2022-07-27T15:47:11.821Z,0.90
2022-07-27T15:49:50.249Z,1.07
2022-07-27T15:52:20.377Z,1.00
2022-07-27T15:54:56.810Z,1.10
2022-07-27T15:57:24.430Z,1.20
2022-07-27T15:59:56.513Z,1.00
2022-07-27T16:02:35.807Z,0.93
2022-07-27T16:05:09.658Z,1.13
2022-07-27T16:07:43.371Z,0.90
2022-07-27T16:10:18.564Z,0.90
2022-07-27T16:12:50.306Z,1.00
2022-07-27T16:15:21.346Z,1.13
2022-07-27T16:17:52.413Z,0.93
2022-07-27T16:20:21.449Z,0.90
2022-07-27T16:22:53.240Z,1.00
2022-07-27T16:25:40.152Z,1.10
2022-07-27T16:28:15.424Z,1.43
2022-07-27T16:30:45.598Z,1.40
2022-07-27T16:33:15.470Z,1.20
2022-07-27T16:35:45.202Z,1.10
2022-07-27T16:41:00.635Z,1.27
2022-07-27T16:43:36.002Z,1.20
2022-07-27T16:46:11.645Z,1.00
2022-07-27T16:51:27.694Z,1.13
2022-07-27T16:54:00.333Z,1.10
2022-07-27T16:56:29.647Z,0.87
2022-07-27T16:59:01.924Z,0.90
2022-07-27T17:01:32.834Z,1.30
2022-07-27T17:04:02.746Z,1.10
2022-07-27T17:06:32.830Z,1.10
2022-07-27T17:09:03.403Z,0.93
2022-07-27T17:11:37.160Z,1.03
2022-07-27T17:14:09.350Z,1.20
2022-07-27T17:16:39.895Z,0.97
2022-07-27T17:19:08.461Z,1.20
2022-07-27T17:21:38.377Z,1.10
2022-07-27T17:24:09.670Z,1.30
2022-07-27T17:26:48.979Z,1.60
2022-07-27T17:29:27.668Z,1.13
2022-07-27T17:31:58.822Z,1.77
2022-07-27T17:34:28.342Z,1.20
2022-07-27T17:37:00.336Z,1.90
2022-07-27T17:39:30.224Z,1.50
2022-07-27T17:42:01.216Z,1.70
2022-07-27T17:44:32.563Z,1.47
2022-07-27T17:47:04.870Z,1.40
2022-07-27T17:49:36.573Z,1.37
2022-07-27T17:52:06.777Z,1.30
2022-07-27T17:54:37.744Z,1.00
2022-07-27T17:57:10.406Z,1.47
2022-07-27T17:59:40.709Z,1.30
2022-07-27T18:02:14.335Z,1.03
2022-07-27T18:04:49.383Z,1.63
2022-07-27T18:07:24.198Z,1.20
2022-07-27T18:10:05.587Z,1.10
2022-07-27T18:12:38.477Z,1.27
2022-07-27T18:15:25.406Z,1.07
2022-07-27T18:17:57.638Z,1.40
2022-07-27T18:20:29.333Z,1.70
2022-07-27T18:22:57.845Z,1.90
2022-07-27T18:25:27.550Z,1.93
2022-07-27T18:28:00.336Z,1.03
2022-07-27T18:30:32.563Z,0.90
2022-07-27T18:33:03.423Z,1.30
2022-07-27T18:35:37.474Z,1.30
2022-07-27T18:38:13.117Z,1.17
2022-07-27T18:40:45.440Z,2.43
2022-07-27T18:43:26.641Z,2.10
2022-07-27T18:45:54.502Z,1.80
2022-07-27T18:48:27.843Z,1.40
2022-07-27T18:50:56.819Z,1.67
2022-07-27T18:53:29.154Z,1.50
2022-07-27T18:55:57.973Z,1.50
2022-07-27T18:58:32.762Z,1.30
2022-07-27T19:01:02.649Z,1.70
2022-07-27T19:03:32.378Z,1.27
2022-07-27T19:06:00.177Z,1.10
2022-07-27T19:08:29.885Z,1.40
2022-07-27T19:11:02.978Z,1.40
2022-07-27T19:13:36.472Z,1.77
2022-07-27T19:16:12.758Z,1.30
2022-07-27T19:21:27.551Z,1.30
2022-07-27T19:23:59.323Z,1.33
2022-07-27T19:26:36.218Z,1.40
2022-07-27T19:29:09.103Z,1.30
2022-07-27T19:31:41.539Z,1.30
2022-07-27T19:34:15.409Z,1.23
2022-07-27T19:36:44.201Z,1.17
2022-07-27T19:39:18.406Z,1.20
2022-07-27T19:41:50.914Z,1.30
2022-07-27T19:44:22.618Z,1.10
2022-07-27T19:46:56.940Z,1.10
2022-07-27T19:49:25.829Z,1.00
2022-07-27T19:51:56.653Z,1.43
2022-07-27T19:54:31.216Z,1.27
2022-07-27T19:57:10.930Z,1.17
2022-07-27T19:59:55.849Z,1.33
2022-07-27T20:02:36.895Z,1.17
2022-07-27T20:05:06.604Z,1.80
2022-07-27T20:07:39.831Z,1.30
2022-07-27T20:10:10.618Z,1.30
2022-07-27T20:12:43.635Z,1.30
2022-07-27T20:15:19.353Z,1.30
2022-07-27T20:17:55.326Z,1.40
2022-07-27T20:20:26.386Z,2.50
2022-07-27T20:22:59.263Z,2.00
2022-07-27T20:25:40.756Z,2.30
2022-07-27T20:28:17.568Z,2.10
2022-07-27T20:30:59.139Z,1.80
2022-07-27T20:33:32.802Z,1.97
2022-07-27T20:36:07.872Z,1.83
2022-07-27T20:38:37.970Z,2.10
2022-07-27T20:41:14.166Z,1.83
2022-07-27T20:43:43.847Z,1.83
2022-07-27T20:46:13.954Z,1.60
2022-07-27T20:48:49.250Z,1.87
2022-07-27T20:51:22.287Z,1.90
2022-07-27T20:53:52.468Z,1.80
2022-07-27T20:56:20.982Z,1.97
2022-07-27T20:58:50.583Z,1.50
2022-07-27T21:01:24.981Z,1.50
2022-07-27T21:04:02.104Z,1.60
2022-07-27T21:06:33.179Z,1.53
2022-07-27T21:09:05.226Z,1.70
2022-07-27T21:11:39.913Z,1.50
2022-07-27T21:14:15.000Z,1.50
2022-07-27T21:16:50.307Z,1.30
2022-07-27T21:19:22.888Z,1.30
2022-07-27T21:24:36.979Z,1.50
2022-07-27T21:27:13.248Z,1.40
2022-07-27T21:29:44.813Z,1.43
2022-07-27T21:32:15.613Z,1.40
2022-07-27T21:37:34.279Z,1.20
2022-07-27T21:40:05.729Z,1.57
2022-07-27T21:42:35.716Z,1.40
2022-07-27T21:45:08.831Z,1.30
2022-07-27T21:47:37.324Z,1.70
2022-07-27T21:50:07.411Z,1.30
2022-07-27T21:52:41.948Z,1.37
2022-07-27T21:55:12.290Z,1.30
2022-07-27T21:57:41.077Z,1.33
2022-07-27T22:00:16.421Z,1.20
2022-07-27T22:02:47.961Z,1.30
2022-07-27T22:05:25.224Z,1.00
2022-07-27T22:07:54.969Z,1.30
2022-07-27T22:10:33.564Z,1.17
2022-07-27T22:13:07.189Z,1.00
2022-07-27T22:15:38.979Z,1.90
2022-07-27T22:18:36.122Z,3.63
2022-07-27T22:21:08.674Z,10.03
2022-07-27T22:23:39.647Z,15.73
2022-07-27T22:26:15.224Z,15.33
2022-07-27T22:28:45.808Z,12.57
2022-07-27T22:31:21.780Z,12.03
2022-07-27T22:33:54.589Z,12.63
2022-07-27T22:36:26.394Z,11.37
2022-07-27T22:38:53.773Z,10.77
2022-07-27T22:41:22.417Z,10.00
2022-07-27T22:43:54.455Z,11.67
2022-07-27T22:49:11.463Z,10.23
2022-07-27T22:51:50.337Z,9.30
2022-07-27T22:54:23.164Z,9.80
2022-07-27T22:56:52.096Z,9.27
2022-07-27T22:59:38.471Z,9.30
2022-07-27T23:02:10.307Z,7.70
2022-07-27T23:07:28.265Z,8.27
2022-07-27T23:10:00.280Z,8.87
2022-07-27T23:12:30.365Z,7.73
2022-07-27T23:14:58.933Z,7.77
2022-07-27T23:17:29.872Z,7.40
2022-07-27T23:19:58.287Z,7.07
2022-07-27T23:22:29.927Z,7.53
2022-07-27T23:25:00.942Z,6.03
2022-07-27T23:27:31.005Z,6.63
2022-07-27T23:30:03.274Z,7.03
2022-07-27T23:32:38.621Z,5.87
2022-07-27T23:35:10.496Z,5.83
2022-07-27T23:37:42.665Z,6.03
2022-07-27T23:40:15.760Z,5.40
2022-07-27T23:42:48.156Z,4.93
2022-07-27T23:45:19.374Z,5.07
2022-07-27T23:47:48.117Z,4.73
2022-07-27T23:50:16.640Z,5.83
2022-07-27T23:52:48.884Z,4.50
2022-07-27T23:55:21.970Z,4.73
2022-07-27T23:57:52.879Z,4.80
